METAR AND TAF INFORMATION
METAR FOR EFOU
ADDS - METARS form results

(0222 UTC 01 June 2020)
Data provider http://aviationweather.gov/metar/data/
 
METAR text: EFOU 010220Z AUTO 16002KT CAVOK 10/07 Q1027
Conditions at: EFOU (OULU/ULEABORG , FI) observed 0220 UTC 01 June 2020
Temperature: 10.0°C (50°F)
Dewpoint: 7.0°C (45°F) [RH = 82%]
Pressure (altimeter): 30.32 inches Hg (1027.0 mb)
Winds: from the SSE (160 degrees) at 2 MPH (2 knots; 1.0 m/s)
Visibility: 6 or more miles (10+ km)
Ceiling: ceiling and visibility are OK
Clouds: unknown
Weather: no significant weather observed at this time

METAR text: EFOU 010150Z AUTO 15004KT CAVOK 09/07 Q1027
Conditions at: EFOU (OULU/ULEABORG , FI) observed 0150 UTC 01 June 2020
Temperature: 9.0°C (48°F)
Dewpoint: 7.0°C (45°F) [RH = 87%]
Pressure (altimeter): 30.32 inches Hg (1027.0 mb)
Winds: from the SSE (150 degrees) at 5 MPH (4 knots; 2.1 m/s)
Visibility: 6 or more miles (10+ km)
Ceiling: ceiling and visibility are OK
Clouds: unknown
Weather: no significant weather observed at this time

Forecast for: EFOU (OULU/ULEABORG , FI)
Text: TAF EFOU 312321Z 0100/0124 33003KT CAVOK
Forecast period: 0000 UTC 01 June 2020 to 0000 UTC 02 June 2020
Forecast type: FROM: standard forecast or significant change
Winds: from the NNW (330 degrees) at 3 MPH (3 knots; 1.5 m/s)
Visibility: 6 or more miles 10+ km)
Ceiling: unknown
Clouds: missing
Weather: NSW  (no significant weather)

 AIRPORT MAP

 RUNWAY INFORMATION
Runway 12 Runway length 8205 ft Runway width 197 ft
Runway elevation 47 ft Runway displaced threshold 0 ft Runway heading 121
Runway 30 Runway length 8205 ft Runway width 197 ft
Runway elevation 33 ft Runway displaced threshold 0 ft Runway heading 301

 AIRPORT FREQUENCIES
Type ATIS Name ATIS Frequency 135.45 MHZ
Type TWR Name TWR Frequency 124.4 MHZ

 AIRPORT NEAR NAVIGATION AIDS
Type NDB Name Laanila Frequency 350 KHZ
Type VOR-DME Name Oulu Frequency 113300 KHZ



Powered by Virtual Airlines Manager [v2.6.2]